Shikarpur Weather



Shikarpur's Current Weather

Temprature 16o mist

mist

Rain: 0 %

Min Temprature16o
Max Temprature16o
Humidity82
Wind Speed2.1 m/h
Sun Rise07:07:03
Sun Set17:31:02
Current Time: 12-Dec-2019 01:27:47
Lat/Lon: 27.96, 68.63




Shikarpur's Geo Location



Shikarpur's Weather Forecast

Time Overall Temp Min Temp Max Temp Humidity Wind Speed Rain
12-Dec-2019 (Thu)
02:00:00 broken clouds 14.720 14.720 19.020 34 5.77 m/h 0 %
05:00:00 broken clouds 15.280 15.280 18.510 42 4.41 m/h 0 %
08:00:00 light rain 13.730 13.730 15.880 62 5.56 m/h 38 %
11:00:00 light rain 14.760 14.760 15.840 69 4.72 m/h 25 %
14:00:00 broken clouds 19.240 19.240 19.240 52 5.25 m/h 0 %
17:00:00 scattered clouds 18.180 18.180 18.180 53 3.19 m/h 0 %
20:00:00 clear sky 15.160 15.160 15.160 60 2.96 m/h 0 %
23:00:00 clear sky 13.940 13.940 13.940 63 2.37 m/h 0 %
13-Dec-2019 (Fri)
02:00:00 clear sky 12.660 12.660 12.660 71 2.56 m/h 0 %
05:00:00 clear sky 11.690 11.690 11.690 73 2.05 m/h 0 %
08:00:00 clear sky 12.140 12.140 12.140 68 1.9 m/h 0 %
11:00:00 clear sky 18.310 18.310 18.310 45 1.45 m/h 0 %
14:00:00 clear sky 21.850 21.850 21.850 34 1.74 m/h 0 %
17:00:00 clear sky 20.680 20.680 20.680 32 1.17 m/h 0 %
20:00:00 few clouds 16.790 16.790 16.790 42 2.05 m/h 0 %
23:00:00 clear sky 15.150 15.150 15.150 48 1.48 m/h 0 %
14-Dec-2019 (Sat)
02:00:00 clear sky 14.540 14.540 14.540 50 1.55 m/h 0 %
05:00:00 clear sky 13.790 13.790 13.790 53 1.18 m/h 0 %
08:00:00 clear sky 14.940 14.940 14.940 50 1.32 m/h 0 %
11:00:00 clear sky 21.600 21.600 21.600 34 1.52 m/h 0 %
14:00:00 clear sky 23.830 23.830 23.830 29 2.06 m/h 0 %
17:00:00 few clouds 22.560 22.560 22.560 30 1.48 m/h 0 %
20:00:00 scattered clouds 17.800 17.800 17.800 36 3.92 m/h 0 %
23:00:00 broken clouds 17.940 17.940 17.940 35 2.47 m/h 0 %
15-Dec-2019 (Sun)
02:00:00 overcast clouds 17.820 17.820 17.820 37 2.5 m/h 0 %
05:00:00 overcast clouds 17.210 17.210 17.210 42 2.81 m/h 0 %
08:00:00 overcast clouds 17.160 17.160 17.160 44 2.95 m/h 0 %
11:00:00 overcast clouds 19.950 19.950 19.950 37 3.11 m/h 0 %
14:00:00 scattered clouds 22.430 22.430 22.430 30 2.89 m/h 0 %
17:00:00 few clouds 21.260 21.260 21.260 32 2 m/h 0 %
20:00:00 few clouds 17.530 17.530 17.530 41 3.13 m/h 0 %
23:00:00 few clouds 16.360 16.360 16.360 44 2.58 m/h 0 %
16-Dec-2019 (Mon)
02:00:00 clear sky 14.870 14.870 14.870 49 1.31 m/h 0 %
05:00:00 clear sky 13.990 13.990 13.990 52 1.48 m/h 0 %
08:00:00 clear sky 14.570 14.570 14.570 51 1.68 m/h 0 %
11:00:00 clear sky 21.290 21.290 21.290 32 1.49 m/h 0 %
14:00:00 clear sky 23.660 23.660 23.660 27 0.85 m/h 0 %
17:00:00 clear sky 21.900 21.900 21.900 29 1.19 m/h 0 %
20:00:00 clear sky 17.620 17.620 17.620 41 2.59 m/h 0 %
23:00:00 clear sky 16.020 16.020 16.020 46 1.17 m/h 0 %

Famous Cities (61)